createdAt,value
2022-09-05T00:02:21.210Z,100053.06
2022-09-05T00:04:57.847Z,100059.34
2022-09-05T00:07:57.951Z,100053.44
2022-09-05T00:10:36.193Z,100064.81
2022-09-05T00:13:11.174Z,100080.13
2022-09-05T00:15:50.508Z,100078.19
2022-09-05T00:24:11.037Z,100080.53
2022-09-05T00:24:27.483Z,100087.97
2022-09-05T00:25:07.284Z,100090.72
2022-09-05T00:27:51.055Z,100086.81
2022-09-05T00:31:51.913Z,100099.34
2022-09-05T00:33:21.443Z,100090.72
2022-09-05T00:36:09.901Z,100085.59
2022-09-05T00:38:43.081Z,100081.28
2022-09-05T00:41:14.495Z,100087.94
2022-09-05T00:43:44.661Z,100079.72
2022-09-05T00:46:17.660Z,100076.19
2022-09-05T00:48:52.751Z,100073.06
2022-09-05T00:51:34.782Z,100070.28
2022-09-05T00:54:40.329Z,100076.16
2022-09-05T00:57:30.586Z,100078.53
2022-09-05T01:00:16.986Z,100068.34
2022-09-05T01:03:27.101Z,100070.28
2022-09-05T01:06:18.971Z,100061.25
2022-09-05T01:09:21.491Z,100066.34
2022-09-05T01:12:07.778Z,100070.25
2022-09-05T01:14:48.478Z,100070.66
2022-09-05T01:17:31.470Z,100069.47
2022-09-05T01:20:20.184Z,100073.41
2022-09-05T01:23:22.561Z,100067.13
2022-09-05T01:26:10.426Z,100067.91
2022-09-05T01:29:16.104Z,100068.69
2022-09-05T01:31:44.731Z,100067.50
2022-09-05T01:34:31.431Z,100068.66
2022-09-05T01:37:08.475Z,100070.63
2022-09-05T01:40:14.645Z,100067.50
2022-09-05T01:43:00.695Z,100074.97
2022-09-05T01:45:42.549Z,100069.06
2022-09-05T01:48:23.677Z,100062.44
2022-09-05T01:51:01.942Z,100060.88
2022-09-05T01:53:43.156Z,100067.91
2022-09-05T01:56:43.088Z,100066.72
2022-09-05T01:59:26.927Z,100072.25
2022-09-05T02:02:25.026Z,100070.28
2022-09-05T02:05:47.899Z,100081.22
2022-09-05T02:08:46.639Z,100072.63
2022-09-05T02:11:16.599Z,100069.13
2022-09-05T02:14:13.199Z,100069.88
2022-09-05T02:16:56.836Z,100075.38
2022-09-05T02:19:31.700Z,100083.22
2022-09-05T02:22:09.363Z,100081.63
2022-09-05T02:24:39.671Z,100081.22
2022-09-05T02:27:47.585Z,100082.78
2022-09-05T02:30:16.685Z,100068.66
2022-09-05T02:33:04.933Z,100071.00
2022-09-05T02:35:42.479Z,100076.94
2022-09-05T02:40:51.988Z,100075.78
2022-09-05T02:45:15.181Z,100079.69
2022-09-05T02:45:24.586Z,100082.09
2022-09-05T02:47:00.351Z,100075.00
2022-09-05T02:52:03.837Z,100080.91
2022-09-05T02:57:29.485Z,100091.09
2022-09-05T02:57:37.041Z,100083.25
2022-09-05T02:59:09.085Z,100076.19
2022-09-05T03:02:01.001Z,100088.34
2022-09-05T03:04:39.306Z,100092.28
2022-09-05T03:07:22.905Z,100085.59
2022-09-05T03:10:10.107Z,100089.09
2022-09-05T03:13:08.172Z,100090.28
2022-09-05T03:16:11.091Z,100091.09
2022-09-05T03:19:12.922Z,100093.44
2022-09-05T03:22:24.327Z,100093.81
2022-09-05T03:25:36.129Z,100094.59
2022-09-05T03:28:29.764Z,100092.66
2022-09-05T03:31:22.434Z,100101.31
2022-09-05T03:34:41.572Z,100099.72
2022-09-05T03:37:56.015Z,100103.28
2022-09-05T03:40:50.189Z,100108.00
2022-09-05T03:43:59.891Z,100111.91
2022-09-05T03:46:48.947Z,100118.19
2022-09-05T03:52:45.772Z,100112.66
2022-09-05T03:57:11.773Z,100113.88
2022-09-05T03:57:28.307Z,100115.81
2022-09-05T03:58:56.283Z,100124.81
2022-09-05T04:02:37.377Z,100135.38
2022-09-05T04:08:15.119Z,100136.22
2022-09-05T04:08:18.710Z,100126.78
2022-09-05T04:10:31.030Z,100134.22
2022-09-05T04:13:06.401Z,100136.19
2022-09-05T04:15:42.043Z,100137.41
2022-09-05T04:18:32.771Z,100137.41
2022-09-05T04:21:08.846Z,100153.09
2022-09-05T04:23:48.653Z,100140.94
2022-09-05T04:26:46.300Z,100150.78
2022-09-05T04:29:23.194Z,100144.91
2022-09-05T04:32:17.445Z,100153.56
2022-09-05T04:35:10.757Z,100154.72
2022-09-05T04:37:48.531Z,100153.53
2022-09-05T04:40:52.518Z,100159.81
2022-09-05T04:43:28.961Z,100172.38
2022-09-05T04:46:22.797Z,100170.00
2022-09-05T04:49:03.156Z,100170.81
2022-09-05T04:52:00.958Z,100172.41
2022-09-05T04:54:45.819Z,100176.28
2022-09-05T04:57:24.231Z,100175.16
2022-09-05T05:06:00.143Z,100177.50
2022-09-05T05:06:15.296Z,100182.97
2022-09-05T05:06:17.930Z,100181.03
2022-09-05T05:08:51.585Z,100182.59
2022-09-05T05:14:27.339Z,100183.75
2022-09-05T05:18:01.200Z,100187.31
2022-09-05T05:18:07.037Z,100190.44
2022-09-05T05:20:39.934Z,100194.38
2022-09-05T05:23:07.312Z,100201.44
2022-09-05T05:25:45.977Z,100200.63
2022-09-05T05:28:23.961Z,100208.50
2022-09-05T05:31:01.459Z,100206.13
2022-09-05T05:40:50.874Z,100202.94
2022-09-05T05:52:00.981Z,100213.19
2022-09-05T05:54:41.800Z,100224.16
2022-09-05T05:57:37.654Z,100224.47
2022-09-05T06:00:15.022Z,100225.97
2022-09-05T06:03:25.712Z,100230.59
2022-09-05T06:06:16.169Z,100234.38
2022-09-05T06:14:34.799Z,100237.13
2022-09-05T06:14:58.872Z,100241.28
2022-09-05T06:16:11.162Z,100240.63
2022-09-05T06:19:24.124Z,100245.34
2022-09-05T06:22:51.827Z,100244.47
2022-09-05T06:25:58.892Z,100253.25
2022-09-05T06:32:22.151Z,100248.13
2022-09-05T06:35:30.877Z,100247.25
2022-09-05T06:38:17.396Z,100250.78
2022-09-05T06:40:55.534Z,100256.25
2022-09-05T06:43:40.839Z,100253.91
2022-09-05T06:46:54.767Z,100253.16
2022-09-05T06:49:32.379Z,100262.63
2022-09-05T06:52:39.561Z,100263.59
2022-09-05T06:55:42.213Z,100259.16
2022-09-05T06:58:46.266Z,100265.63
2022-09-05T07:01:17.436Z,100269.41
2022-09-05T07:04:49.337Z,100263.06
2022-09-05T07:07:11.724Z,100265.44
2022-09-05T07:09:57.526Z,100268.88
2022-09-05T07:12:30.110Z,100272.72
2022-09-05T07:15:09.266Z,100269.72
2022-09-05T07:18:10.256Z,100270.50
2022-09-05T07:21:16.790Z,100273.28
2022-09-05T07:24:06.413Z,100266.50
2022-09-05T07:26:51.850Z,100270.66
2022-09-05T07:29:25.591Z,100265.44
2022-09-05T07:31:57.972Z,100272.25
2022-09-05T07:34:30.710Z,100266.09
2022-09-05T07:37:15.302Z,100259.69
2022-09-05T07:39:51.709Z,100269.38
2022-09-05T07:42:26.583Z,100265.28
2022-09-05T07:44:59.155Z,100258.34
2022-09-05T07:47:30.704Z,100260.75
2022-09-05T07:51:13.599Z,100257.66
2022-09-05T07:57:00.269Z,100259.25
2022-09-05T07:57:07.807Z,100260.03
2022-09-05T07:58:44.097Z,100255.28
2022-09-05T08:01:14.692Z,100255.09
2022-09-05T08:03:44.646Z,100249.56
2022-09-05T08:07:45.533Z,100251.31
2022-09-05T08:10:05.232Z,100251.94
2022-09-05T08:12:11.643Z,100252.28
2022-09-05T08:14:52.848Z,100245.28
2022-09-05T08:17:26.453Z,100250.91
2022-09-05T08:20:23.765Z,100242.97
2022-09-05T08:23:00.835Z,100228.78
2022-09-05T08:25:36.236Z,100235.41
2022-09-05T08:28:37.651Z,100236.19
2022-09-05T08:31:12.749Z,100234.94
2022-09-05T08:33:41.641Z,100228.44
2022-09-05T08:36:19.330Z,100233.25
2022-09-05T08:38:48.126Z,100229.03
2022-09-05T08:41:37.512Z,100228.66
2022-09-05T08:46:46.956Z,100220.28
2022-09-05T08:47:19.528Z,100225.94
2022-09-05T08:50:17.800Z,100224.03
2022-09-05T08:52:58.784Z,100228.72
2022-09-05T08:55:40.825Z,100224.78
2022-09-05T08:58:34.055Z,100232.28
2022-09-05T09:01:13.659Z,100215.91
2022-09-05T09:04:02.216Z,100219.34
2022-09-05T09:07:36.805Z,100220.25
2022-09-05T09:10:01.805Z,100221.25
2022-09-05T09:12:55.361Z,100209.81
2022-09-05T09:15:30.943Z,100215.63
2022-09-05T09:18:00.740Z,100203.03
2022-09-05T09:20:47.577Z,100201.91
2022-09-05T09:23:33.721Z,100202.53
2022-09-05T09:26:11.702Z,100199.31
2022-09-05T09:28:51.677Z,100215.00
2022-09-05T09:31:33.286Z,100208.88
2022-09-05T09:34:20.818Z,100209.00
2022-09-05T09:37:44.181Z,100210.31
2022-09-05T09:40:31.599Z,100213.41
2022-09-05T09:43:07.295Z,100206.03
2022-09-05T09:45:58.583Z,100207.44
2022-09-05T09:49:21.661Z,100206.81
2022-09-05T09:52:25.215Z,100202.47
2022-09-05T09:55:42.124Z,100210.28
2022-09-05T09:58:40.320Z,100205.50
2022-09-05T10:01:36.484Z,100200.34
2022-09-05T10:10:35.742Z,100206.53
2022-09-05T10:10:45.544Z,100205.69
2022-09-05T10:14:45.039Z,100201.81
2022-09-05T10:17:40.597Z,100201.25
2022-09-05T10:21:16.413Z,100197.75
2022-09-05T10:24:14.763Z,100205.97
2022-09-05T10:27:06.465Z,100203.50
2022-09-05T10:29:47.894Z,100192.75
2022-09-05T10:35:03.802Z,100198.16
2022-09-05T10:35:25.726Z,100192.28
2022-09-05T10:38:10.708Z,100192.59
2022-09-05T10:41:20.005Z,100188.72
2022-09-05T10:43:34.568Z,100185.66
2022-09-05T10:46:39.725Z,100180.69
2022-09-05T10:49:10.504Z,100176.88
2022-09-05T10:51:51.853Z,100176.84
2022-09-05T10:54:38.052Z,100168.53
2022-09-05T10:57:23.353Z,100173.31
2022-09-05T11:02:24.098Z,100172.72
2022-09-05T11:03:02.119Z,100161.66
2022-09-05T11:05:38.188Z,100160.63
2022-09-05T11:08:12.300Z,100156.22
2022-09-05T11:10:48.436Z,100145.94
2022-09-05T11:13:27.731Z,100143.34
2022-09-05T11:16:13.453Z,100145.81
2022-09-05T11:18:57.075Z,100139.84
2022-09-05T11:21:41.180Z,100136.47
2022-09-05T11:24:27.579Z,100132.03
2022-09-05T11:27:25.031Z,100128.41
2022-09-05T11:29:54.873Z,100123.78
2022-09-05T11:39:59.545Z,100123.72
2022-09-05T11:40:10.762Z,100115.06
2022-09-05T11:40:24.849Z,100113.50
2022-09-05T11:42:32.120Z,100108.69
2022-09-05T11:45:19.971Z,100108.91
2022-09-05T11:48:10.769Z,100104.94
2022-09-05T11:51:10.153Z,100111.06
2022-09-05T11:54:23.272Z,100090.34
2022-09-05T11:57:32.877Z,100094.22
2022-09-05T12:00:31.204Z,100102.53
2022-09-05T12:03:58.686Z,100091.25
2022-09-05T12:07:30.723Z,100097.69
2022-09-05T12:10:47.361Z,100088.09
2022-09-05T12:13:17.579Z,100084.88
2022-09-05T12:18:45.689Z,100078.91
2022-09-05T12:21:31.851Z,100078.00
2022-09-05T12:27:40.714Z,100071.41
2022-09-05T12:30:03.669Z,100061.09
2022-09-05T12:36:01.333Z,100054.75
2022-09-05T12:36:07.009Z,100059.53
2022-09-05T12:40:54.924Z,100054.63
2022-09-05T12:41:41.216Z,100077.28
2022-09-05T12:42:09.731Z,100076.31
2022-09-05T12:42:10.994Z,100057.00
2022-09-05T12:44:45.863Z,100054.00
2022-09-05T12:47:21.153Z,100052.28
2022-09-05T12:50:02.657Z,100047.34
2022-09-05T12:52:42.814Z,100057.31
2022-09-05T12:55:26.186Z,100051.22
2022-09-05T13:02:57.217Z,100058.91
2022-09-05T13:03:02.751Z,100049.66
2022-09-05T13:04:16.075Z,100056.06
2022-09-05T13:06:41.089Z,100051.66
2022-09-05T13:09:11.692Z,100048.06
2022-09-05T13:14:49.161Z,100052.13
2022-09-05T13:15:21.862Z,100053.06
2022-09-05T13:17:59.395Z,100051.84
2022-09-05T13:20:35.097Z,100046.16
2022-09-05T13:23:12.366Z,100041.16
2022-09-05T13:25:44.057Z,100042.47
2022-09-05T13:28:16.233Z,100043.44
2022-09-05T13:37:54.041Z,100049.47
2022-09-05T13:38:10.674Z,100044.31
2022-09-05T13:38:13.810Z,100056.41
2022-09-05T13:39:29.863Z,100049.41
2022-09-05T13:42:03.716Z,100045.16
2022-09-05T13:44:38.271Z,100044.41
2022-09-05T13:47:29.660Z,100044.31
2022-09-05T13:50:13.453Z,100038.47
2022-09-05T13:52:47.408Z,100036.91
2022-09-05T13:55:23.662Z,100040.38
2022-09-05T13:57:56.630Z,100038.69
2022-09-05T14:00:54.466Z,100042.66
2022-09-05T14:03:43.269Z,100041.03
2022-09-05T14:06:49.122Z,100047.38
2022-09-05T14:09:44.566Z,100043.00
2022-09-05T14:12:29.392Z,100049.50
2022-09-05T14:15:10.409Z,100033.81
2022-09-05T14:18:01.495Z,100044.53
2022-09-05T14:20:51.054Z,100047.88
2022-09-05T14:23:22.340Z,100051.38
2022-09-05T14:25:57.094Z,100049.63
2022-09-05T14:28:29.125Z,100046.94
2022-09-05T14:37:35.845Z,100051.16
2022-09-05T14:37:48.501Z,100046.38
2022-09-05T14:37:48.902Z,100049.28
2022-09-05T14:40:32.184Z,100044.13
2022-09-05T14:43:48.340Z,100038.06
2022-09-05T14:46:40.671Z,100038.09
2022-09-05T14:50:07.492Z,100033.81
2022-09-05T14:52:43.436Z,100035.91
2022-09-05T15:02:41.740Z,100039.94
2022-09-05T15:02:49.216Z,100035.34
2022-09-05T15:06:38.717Z,100050.25
2022-09-05T15:12:15.088Z,100045.41
2022-09-05T15:12:21.217Z,100044.63
2022-09-05T15:15:01.872Z,100038.94
2022-09-05T15:17:34.807Z,100043.63
2022-09-05T15:20:07.685Z,100040.28
2022-09-05T15:22:37.886Z,100040.06
2022-09-05T15:25:17.881Z,100048.00
2022-09-05T15:27:47.356Z,100047.66
2022-09-05T15:30:34.688Z,100039.31
2022-09-05T15:33:25.364Z,100047.31
2022-09-05T15:35:54.668Z,100044.78
2022-09-05T15:38:26.199Z,100047.22
2022-09-05T15:41:20.664Z,100050.66
2022-09-05T15:43:54.166Z,100050.34
2022-09-05T15:46:28.143Z,100048.66
2022-09-05T15:49:06.002Z,100051.44
2022-09-05T15:51:42.518Z,100045.00
2022-09-05T15:54:15.612Z,100049.88
2022-09-05T15:57:08.979Z,100049.41
2022-09-05T15:59:49.359Z,100047.94
2022-09-05T16:02:22.071Z,100046.06
2022-09-05T16:10:30.050Z,100047.19
2022-09-05T16:10:46.270Z,100048.69
2022-09-05T16:11:27.861Z,100055.72
2022-09-05T16:13:52.907Z,100050.84
2022-09-05T16:21:45.988Z,100056.34
2022-09-05T16:23:30.681Z,100052.13
2022-09-05T16:23:31.628Z,100053.16
2022-09-05T16:25:12.064Z,100058.72
2022-09-05T16:27:52.915Z,100050.94
2022-09-05T16:30:23.224Z,100053.97
2022-09-05T16:32:57.664Z,100056.72
2022-09-05T16:35:26.954Z,100055.69
2022-09-05T16:38:07.946Z,100060.66
2022-09-05T16:40:40.181Z,100061.69
2022-09-05T16:43:12.448Z,100067.59
2022-09-05T16:45:48.032Z,100066.47
2022-09-05T16:48:34.214Z,100073.25
2022-09-05T16:51:15.247Z,100081.41
2022-09-05T16:53:59.034Z,100075.00
2022-09-05T16:56:31.292Z,100077.59
2022-09-05T16:59:04.174Z,100088.47
2022-09-05T17:02:00.592Z,100087.06
2022-09-05T17:05:04.619Z,100086.78
2022-09-05T17:07:53.931Z,100090.88
2022-09-05T17:10:27.458Z,100104.25
2022-09-05T17:12:58.264Z,100101.22
2022-09-05T17:15:29.922Z,100100.44
2022-09-05T17:18:19.103Z,100109.66
2022-09-05T17:20:55.695Z,100099.50
2022-09-05T17:29:15.721Z,100105.97
2022-09-05T17:29:30.088Z,100106.38
2022-09-05T17:31:26.618Z,100113.34
2022-09-05T17:32:45.672Z,100107.13
2022-09-05T17:35:41.734Z,100121.56
2022-09-05T17:38:36.880Z,100128.59
2022-09-05T17:41:37.416Z,100124.31
2022-09-05T17:44:19.372Z,100119.06
2022-09-05T17:47:02.243Z,100131.06
2022-09-05T17:49:45.500Z,100136.44
2022-09-05T17:52:23.935Z,100132.19
2022-09-05T17:54:55.407Z,100137.47
2022-09-05T17:57:41.530Z,100141.06
2022-09-05T18:01:01.119Z,100145.25
2022-09-05T18:04:15.805Z,100150.75
2022-09-05T18:06:59.658Z,100151.63
2022-09-05T18:10:14.770Z,100158.03
2022-09-05T18:13:31.331Z,100161.28
2022-09-05T18:16:13.696Z,100161.75
2022-09-05T18:19:28.376Z,100157.50
2022-09-05T18:21:55.156Z,100161.19
2022-09-05T18:24:36.193Z,100167.09
2022-09-05T18:30:09.535Z,100167.59
2022-09-05T18:32:47.288Z,100168.44
2022-09-05T18:35:26.393Z,100171.63
2022-09-05T18:38:34.510Z,100170.97
2022-09-05T18:41:19.605Z,100167.84
2022-09-05T18:44:13.061Z,100165.97
2022-09-05T18:46:51.759Z,100164.13
2022-09-05T18:50:23.339Z,100164.94
2022-09-05T18:52:23.566Z,100160.28
2022-09-05T18:55:57.834Z,100161.88
2022-09-05T18:57:51.686Z,100156.38
2022-09-05T19:00:35.162Z,100160.69
2022-09-05T19:03:17.528Z,100168.22
2022-09-05T19:05:50.346Z,100168.22
2022-09-05T19:08:26.777Z,100176.16
2022-09-05T19:11:01.022Z,100178.56
2022-09-05T19:13:48.386Z,100176.97
2022-09-05T19:16:43.243Z,100176.94
2022-09-05T19:19:16.342Z,100176.09
2022-09-05T19:22:09.055Z,100163.09
2022-09-05T19:24:44.926Z,100159.56
2022-09-05T19:28:29.226Z,100155.13
2022-09-05T19:36:55.465Z,100147.03
2022-09-05T19:36:58.828Z,100151.66
2022-09-05T19:37:03.965Z,100158.41
2022-09-05T19:40:06.414Z,100153.66
2022-09-05T19:44:53.299Z,100149.34
2022-09-05T19:47:42.806Z,100144.28
2022-09-05T19:47:57.561Z,100151.75
2022-09-05T19:50:11.715Z,100145.13
2022-09-05T19:52:41.058Z,100141.63
2022-09-05T19:55:22.411Z,100147.59
2022-09-05T19:58:01.236Z,100150.75
2022-09-05T20:00:59.352Z,100153.97
2022-09-05T20:03:39.436Z,100159.53
2022-09-05T20:06:30.146Z,100151.28
2022-09-05T20:09:16.202Z,100152.13
2022-09-05T20:11:47.704Z,100157.63
2022-09-05T20:14:25.267Z,100161.19
2022-09-05T20:16:57.181Z,100160.84
2022-09-05T20:19:29.353Z,100165.63
2022-09-05T20:22:18.750Z,100162.97
2022-09-05T20:24:49.531Z,100161.03
2022-09-05T20:27:18.167Z,100161.81
2022-09-05T20:29:55.912Z,100170.53
2022-09-05T20:32:38.683Z,100172.09
2022-09-05T20:37:31.344Z,100166.59
2022-09-05T20:43:11.318Z,100180.34
2022-09-05T20:43:31.791Z,100169.00
2022-09-05T20:43:57.768Z,100172.53
2022-09-05T20:54:04.250Z,100180.00
2022-09-05T20:54:15.606Z,100178.06
2022-09-05T20:54:24.998Z,100188.28
2022-09-05T20:55:38.601Z,100180.91
2022-09-05T20:58:11.981Z,100190.34
2022-09-05T21:01:02.438Z,100190.38
2022-09-05T21:03:38.125Z,100189.63
2022-09-05T21:06:25.661Z,100186.50
2022-09-05T21:08:56.193Z,100179.41
2022-09-05T21:11:32.722Z,100184.94
2022-09-05T21:14:03.810Z,100183.38
2022-09-05T21:16:36.021Z,100178.28
2022-09-05T21:19:04.391Z,100181.81
2022-09-05T21:21:35.998Z,100182.16
2022-09-05T21:24:16.410Z,100189.63
2022-09-05T21:26:48.229Z,100183.31
2022-09-05T21:29:18.284Z,100180.94
2022-09-05T21:31:54.331Z,100192.28
2022-09-05T21:34:28.129Z,100178.53
2022-09-05T21:37:06.819Z,100184.81
2022-09-05T21:39:40.300Z,100184.03
2022-09-05T21:44:46.764Z,100178.16
2022-09-05T21:47:46.172Z,100179.72
2022-09-05T21:48:07.894Z,100186.00
2022-09-05T21:50:41.002Z,100193.41
2022-09-05T21:57:03.202Z,100200.09
2022-09-05T21:59:14.611Z,100191.03
2022-09-05T21:59:25.701Z,100196.56
2022-09-05T22:01:54.630Z,100202.38
2022-09-05T22:04:23.035Z,100190.97
2022-09-05T22:06:53.357Z,100194.44
2022-09-05T22:09:23.935Z,100188.88
2022-09-05T22:11:52.763Z,100186.22
2022-09-05T22:14:22.569Z,100190.50
2022-09-05T22:16:53.256Z,100194.78
2022-09-05T22:19:33.990Z,100193.94
2022-09-05T22:22:16.446Z,100187.59
2022-09-05T22:24:53.046Z,100195.41
2022-09-05T22:27:22.856Z,100186.78
2022-09-05T22:29:52.227Z,100188.78
2022-09-05T22:32:34.028Z,100184.34
2022-09-05T22:35:16.012Z,100197.63
2022-09-05T22:38:01.981Z,100194.47
2022-09-05T22:40:32.402Z,100189.72
2022-09-05T22:43:02.626Z,100185.38
2022-09-05T22:45:32.230Z,100187.00
2022-09-05T22:48:01.828Z,100189.00
2022-09-05T22:50:29.973Z,100193.69
2022-09-05T22:52:58.091Z,100188.28
2022-09-05T22:55:26.298Z,100185.53
2022-09-05T22:57:55.789Z,100182.75
2022-09-05T23:00:23.885Z,100188.19
2022-09-05T23:02:57.853Z,100180.00
2022-09-05T23:05:26.445Z,100190.94
2022-09-05T23:07:58.079Z,100179.47
2022-09-05T23:10:26.704Z,100179.94
2022-09-05T23:12:56.271Z,100179.56
2022-09-05T23:15:24.386Z,100181.16
2022-09-05T23:17:55.952Z,100184.59
2022-09-05T23:20:25.225Z,100183.31
2022-09-05T23:22:54.919Z,100178.00
2022-09-05T23:25:23.900Z,100185.34
2022-09-05T23:27:52.908Z,100188.88
2022-09-05T23:30:31.887Z,100178.34
2022-09-05T23:33:06.524Z,100178.00
2022-09-05T23:35:35.067Z,100185.34
2022-09-05T23:38:04.513Z,100181.53
2022-09-05T23:40:33.117Z,100193.22
2022-09-05T23:43:03.182Z,100193.59
2022-09-05T23:45:40.871Z,100203.97
2022-09-05T23:48:13.625Z,100193.81
2022-09-05T23:50:45.226Z,100211.78
2022-09-05T23:53:16.639Z,100207.94
2022-09-05T23:55:45.411Z,100206.72
2022-09-05T23:58:14.426Z,100202.00
